Pos First Name Last Name YOB Country Start
Num
Time Swim T1 Bike T2 Run
1 Alfred Caprez 1956 SUI 3607 02:06:48 00:22:23 00:01:15 01:02:15 00:01:13 00:39:42
2 Anatolijs Levsa 1958 LAT 3589 02:08:13 00:22:26 00:01:06 01:02:49 00:01:14 00:40:37
3 Reto Schawalder 1959 SUI 3608 02:08:17 00:22:58 00:01:03 01:02:20 00:01:07 00:40:48
4 Rob Van Zanten 1957 NED 3605 02:10:03 00:25:08 00:01:19 01:03:07 00:01:12 00:39:17
5 Henk Van Pelt 1958 NED 3596 02:10:36 00:23:05 00:01:01 01:04:38 00:01:17 00:40:34
6 Rene Dekker NED 3598 02:11:33 00:24:57 00:00:55 01:03:46 00:01:10 00:40:44
7 Ralf Laermann 1958 GER 3584 02:12:21 00:25:24 00:01:04 01:04:02 00:01:12 00:40:39
8 Birger Frederiksen 1956 DEN 3553 02:13:32 00:27:41 00:01:15 01:03:00 00:01:30 00:40:05
9 Peter Zoller 1956 GER 3583 02:14:13 00:23:05 00:01:05 01:05:47 00:01:16 00:42:59
10 Michel Darras 1957 FRA 3566 02:17:21 00:27:14 00:01:31 01:05:15 00:01:19 00:42:02
11 Dick Vosmeer NED 3593 02:18:52 00:24:53 00:01:35 01:04:34 00:01:31 00:46:18
12 Nick Speed 1959 GBR 3581 02:19:31 00:25:59 00:01:21 01:06:17 00:01:11 00:44:43
13 Ron Hendriks 1957 NED 3604 02:20:03 00:25:23 00:01:01 01:06:39 00:01:16 00:45:43
14 Ron Evans 1958 GBR 3580 02:20:35 00:24:40 00:01:05 01:10:00 00:01:16 00:43:33
15 Simon Puttock 1958 GBR 3573 02:21:00 00:00:00 00:00:00 01:07:40 00:01:22 00:42:39
16 Erik Visser NED 3601 02:21:58 00:27:34 00:01:04 01:09:54 00:01:14 00:42:12
17 Jaime Bautista Fernandez Rabago 1958 ESP 3560 02:22:41 00:27:19 00:01:25 01:07:43 00:01:24 00:44:50
18 Isidro Rubio Bellon 1959 ESP 3556 02:23:23 00:27:15 00:01:25 01:06:17 00:01:35 00:46:50
19 Peter Dullaart 1957 NED 3599 02:24:01 00:28:08 00:01:35 01:08:08 00:01:41 00:44:29
20 Bernd Katzenberger 1959 GER 3582 02:25:29 00:28:49 00:01:04 01:04:21 00:01:34 00:49:40
21 Wim Van Haperen NED 3594 02:25:38 00:26:44 00:01:14 01:09:21 00:01:19 00:46:59
22 Pieter Iedema 1959 NED 3602 02:25:52 00:31:11 00:01:04 01:07:51 00:01:16 00:44:30
23 Antonio Monreal Hijar 1958 ESP 3557 02:26:11 00:25:00 00:01:12 01:10:46 00:01:27 00:47:46
24 Andres Kübar 1959 EST 3561 02:26:20 00:27:35 00:01:19 01:06:09 00:01:43 00:49:34
25 Harry Dowdell 1958 GBR 3572 02:26:40 00:32:55 00:01:18 01:09:18 00:01:25 00:41:43
26 Philippe Royer 1958 FRA 3564 02:27:11 00:35:12 00:00:55 01:09:07 00:01:09 00:40:47
27 Juan Jose Gomez Anaya 1959 ESP 3558 02:27:16 00:32:16 00:01:22 01:09:25 00:01:34 00:42:39
28 Patrick Collins 1958 GBR 3576 02:28:39 00:34:35 00:01:29 01:10:31 00:01:26 00:40:37
29 Peter Overvoode 1957 GBR 3578 02:29:08 00:31:15 00:01:21 01:08:24 00:01:29 00:46:38
30 Marten Van Der Veen 1959 NED 3603 02:31:16 00:31:21 00:01:37 01:10:03 00:01:45 00:46:29
31 Michael Ryan 1959 IRL 3587 02:31:48 00:31:13 00:01:16 01:10:31 00:01:34 00:47:13
32 Ramón Gago Quero 1956 ESP 3559 02:31:53 00:22:56 00:01:04 01:13:29 00:01:52 00:52:32
33 Peter Harteveld NED 3597 02:32:03 00:24:23 00:01:20 01:17:00 00:01:30 00:47:49
34 Rudy Brinkman 1957 NED 3606 02:32:21 00:31:09 00:02:01 01:10:20 00:02:21 00:46:30
35 Adrian Brown 1955 GBR 3570 02:32:22 00:31:22 00:01:27 01:11:17 00:01:31 00:46:45
36 Tim Thomas 1959 GBR 3569 02:32:34 00:31:01 00:01:22 01:14:27 00:01:19 00:44:25
37 Gerhard Wentink 1955 NED 3595 02:32:51 00:30:16 00:01:24 01:11:11 00:01:36 00:48:23
38 Paul Winter 1957 GBR 3574 02:33:12 00:28:44 00:01:31 01:13:35 00:01:42 00:47:39
39 Kees Greidanus NED 3591 02:33:14 00:34:42 00:01:38 01:11:38 00:01:32 00:43:43
40 Jose Luis Sanchez Denis 1956 ESP 3555 02:35:47 00:28:12 00:01:01 01:16:27 00:01:18 00:48:49
41 Laas Bonnema 1956 NED 3600 02:35:50 00:33:15 00:01:41 01:11:04 00:01:48 00:48:02
42 Antonio Rivas Paez 1957 ESP 3554 02:38:36 00:33:52 00:01:13 01:16:42 00:01:21 00:45:28
43 Tim Rendell 1958 GBR 3568 02:39:12 00:33:34 00:01:33 01:16:31 00:01:36 00:45:57
44 Philippe Bes FRA 3565 02:40:24 00:34:57 00:01:24 01:14:43 00:01:33 00:47:46
45 Stefano Grossi 1959 ITA 3588 02:41:22 00:41:35 00:01:20 01:09:37 00:01:27 00:47:22
46 Tony Strickland 1959 GBR 3567 02:41:23 00:36:49 00:01:31 01:13:28 00:01:24 00:48:11
47 Selwyn Doran 1957 IRL 3586 02:42:55 00:38:21 00:01:19 01:11:07 00:01:55 00:50:12
48 Rene Schockmel 1956 LUX 3590 02:43:20 00:32:41 00:01:54 01:17:27 00:01:54 00:49:23
49 Bruce Shann 1956 GBR 3575 02:47:15 00:41:00 00:01:17 01:11:46 00:01:44 00:51:27
50 Christopher Lee 1958 GBR 3579 02:53:24 00:32:11 00:01:32 01:22:13 00:01:38 00:55:49
51 Simon O'Leary 1959 GBR 3577 02:56:19 00:33:12 00:02:16 01:21:54 00:01:58 00:56:59
52 Jeff Outhwaite 1958 GBR 3571 03:00:14 00:45:24 00:01:31 01:16:10 00:01:38 00:55:31
53 Andrus Vaker 1959 EST 3562 03:04:07 00:26:57 00:01:36 01:25:42 00:02:12 01:07:40
54 Dominique Frizza 1958 FRA 3563 03:11:48 00:39:13 00:01:53 01:26:58 00:02:13 01:01:31